createdAt,value
2023-03-18T00:01:55.286Z,100114.91
2023-03-18T00:04:59.348Z,100122.75
2023-03-18T00:08:04.924Z,100118.19
2023-03-18T00:11:13.255Z,100100.56
2023-03-18T00:14:17.219Z,100101.63
2023-03-18T00:17:21.220Z,100101.44
2023-03-18T00:20:38.900Z,100098.72
2023-03-18T00:23:42.972Z,100089.88
2023-03-18T00:26:48.517Z,100098.81
2023-03-18T00:29:53.283Z,100107.34
2023-03-18T00:32:58.331Z,100102.66
2023-03-18T00:36:02.412Z,100092.78
2023-03-18T00:39:07.690Z,100090.78
2023-03-18T00:42:16.137Z,100092.47
2023-03-18T00:45:20.216Z,100084.06
2023-03-18T00:48:25.784Z,100088.91
2023-03-18T00:51:31.821Z,100078.06
2023-03-18T00:54:36.171Z,100077.66
2023-03-18T00:57:41.695Z,100083.13
2023-03-18T01:00:47.277Z,100076.59
2023-03-18T01:03:52.055Z,100079.19
2023-03-18T01:06:58.139Z,100074.75
2023-03-18T01:10:02.541Z,100076.41
2023-03-18T01:13:08.356Z,100072.72
2023-03-18T01:16:12.417Z,100078.66
2023-03-18T01:19:17.043Z,100075.44
2023-03-18T01:22:21.081Z,100073.34
2023-03-18T01:25:27.553Z,100075.16
2023-03-18T01:28:34.038Z,100068.38
2023-03-18T01:31:38.564Z,100064.81
2023-03-18T01:34:48.611Z,100060.09
2023-03-18T01:37:53.792Z,100064.81
2023-03-18T01:40:58.899Z,100061.84
2023-03-18T01:44:05.625Z,100067.06
2023-03-18T01:47:11.256Z,100061.72
2023-03-18T01:50:22.262Z,100065.59
2023-03-18T01:53:29.034Z,100056.28
2023-03-18T02:00:40.025Z,100056.97
2023-03-18T02:06:48.933Z,100052.59
2023-03-18T02:09:54.410Z,100054.38
2023-03-18T02:13:02.045Z,100048.94
2023-03-18T02:16:17.903Z,100052.38
2023-03-18T02:19:42.086Z,100046.13
2023-03-18T02:22:52.419Z,100052.28
2023-03-18T02:26:04.197Z,100050.88
2023-03-18T02:29:11.650Z,100065.72
2023-03-18T02:32:23.657Z,100051.31
2023-03-18T02:35:29.654Z,100052.38
2023-03-18T02:38:36.456Z,100054.50
2023-03-18T02:41:40.534Z,100051.19
2023-03-18T02:44:48.766Z,100059.81
2023-03-18T02:48:20.069Z,100057.22
2023-03-18T02:51:25.165Z,100060.41
2023-03-18T02:54:31.209Z,100058.28
2023-03-18T02:57:35.440Z,100069.00
2023-03-18T03:00:41.587Z,100064.88
2023-03-18T03:03:46.014Z,100067.38
2023-03-18T03:06:51.492Z,100066.44
2023-03-18T03:10:01.642Z,100063.44
2023-03-18T03:13:06.822Z,100064.69
2023-03-18T03:16:13.554Z,100062.66
2023-03-18T03:19:18.198Z,100067.03
2023-03-18T03:22:22.404Z,100069.78
2023-03-18T03:25:27.520Z,100063.28
2023-03-18T03:28:32.586Z,100074.72
2023-03-18T03:31:38.074Z,100080.66
2023-03-18T03:34:43.656Z,100072.41
2023-03-18T03:37:49.565Z,100067.50
2023-03-18T03:40:54.614Z,100072.47
2023-03-18T03:43:58.610Z,100067.72
2023-03-18T03:47:04.078Z,100071.91
2023-03-18T03:50:10.754Z,100076.00
2023-03-18T03:53:14.863Z,100076.72
2023-03-18T03:56:18.869Z,100076.47
2023-03-18T03:59:22.904Z,100079.56
2023-03-18T04:02:53.100Z,100081.69
2023-03-18T04:05:58.577Z,100078.50
2023-03-18T04:09:06.224Z,100080.88
2023-03-18T04:12:12.349Z,100081.59
2023-03-18T04:15:18.650Z,100083.34
2023-03-18T04:18:26.649Z,100079.19
2023-03-18T04:21:31.106Z,100084.06
2023-03-18T04:24:35.706Z,100087.56
2023-03-18T04:27:40.587Z,100086.88
2023-03-18T04:30:47.423Z,100086.31
2023-03-18T04:33:55.889Z,100086.16
2023-03-18T04:36:59.853Z,100088.38
2023-03-18T04:40:06.832Z,100093.88
2023-03-18T04:43:11.520Z,100093.06
2023-03-18T04:46:17.060Z,100096.13
2023-03-18T04:49:24.847Z,100099.56
2023-03-18T04:52:30.337Z,100096.25
2023-03-18T04:55:36.969Z,100096.56
2023-03-18T04:58:44.246Z,100087.97
2023-03-18T05:01:53.913Z,100095.72
2023-03-18T05:05:01.115Z,100090.38
2023-03-18T05:08:07.884Z,100094.59
2023-03-18T05:11:12.245Z,100097.94
2023-03-18T05:14:16.416Z,100099.91
2023-03-18T05:17:23.530Z,100098.72
2023-03-18T05:20:37.712Z,100097.09
2023-03-18T05:23:41.802Z,100102.13
2023-03-18T05:26:46.147Z,100106.97
2023-03-18T05:29:52.188Z,100109.03
2023-03-18T05:33:02.322Z,100107.09
2023-03-18T05:36:28.014Z,100108.50
2023-03-18T05:39:38.683Z,100111.91
2023-03-18T05:42:55.919Z,100113.47
2023-03-18T05:46:08.658Z,100114.00
2023-03-18T05:49:41.984Z,100110.50
2023-03-18T05:52:56.046Z,100112.97
2023-03-18T05:56:01.973Z,100119.00
2023-03-18T05:59:08.037Z,100124.38
2023-03-18T06:02:22.628Z,100116.91
2023-03-18T06:05:27.137Z,100126.06
2023-03-18T06:08:32.842Z,100119.59
2023-03-18T06:11:37.321Z,100125.34
2023-03-18T06:14:41.635Z,100121.41
2023-03-18T06:17:46.098Z,100119.31
2023-03-18T06:20:50.263Z,100118.88
2023-03-18T06:23:57.033Z,100119.25
2023-03-18T06:27:02.800Z,100117.03
2023-03-18T06:30:08.360Z,100119.13
2023-03-18T06:33:15.585Z,100113.13
2023-03-18T06:36:19.904Z,100109.91
2023-03-18T06:39:29.541Z,100108.91
2023-03-18T06:42:36.820Z,100107.81
2023-03-18T06:45:48.125Z,100101.03
2023-03-18T06:48:52.575Z,100104.97
2023-03-18T06:52:02.635Z,100094.59
2023-03-18T06:55:09.735Z,100094.63
2023-03-18T06:58:17.858Z,100093.28
2023-03-18T07:01:33.380Z,100098.97
2023-03-18T07:04:38.367Z,100102.31
2023-03-18T07:07:42.824Z,100097.19
2023-03-18T07:10:48.815Z,100101.97
2023-03-18T07:13:53.490Z,100096.19
2023-03-18T07:17:08.668Z,100095.88
2023-03-18T07:20:13.922Z,100105.59
2023-03-18T07:23:18.677Z,100094.66
2023-03-18T07:26:24.676Z,100090.06
2023-03-18T07:29:28.852Z,100082.09
2023-03-18T07:32:33.122Z,100077.88
2023-03-18T07:35:38.518Z,100082.13
2023-03-18T07:38:42.702Z,100089.28
2023-03-18T07:41:49.855Z,100089.63
2023-03-18T07:44:58.525Z,100086.34
2023-03-18T07:48:02.734Z,100088.41
2023-03-18T07:51:07.415Z,100091.13
2023-03-18T07:54:11.650Z,100090.84
2023-03-18T07:57:17.568Z,100093.97
2023-03-18T08:00:22.681Z,100099.25
2023-03-18T08:03:26.773Z,100091.59
2023-03-18T08:06:30.971Z,100108.38
2023-03-18T08:09:35.140Z,100105.03
2023-03-18T08:12:52.137Z,100107.50
2023-03-18T08:15:57.704Z,100110.94
2023-03-18T08:19:01.839Z,100118.06
2023-03-18T08:22:05.954Z,100115.59
2023-03-18T08:25:11.764Z,100105.31
2023-03-18T08:28:17.391Z,100110.78
2023-03-18T08:31:21.641Z,100113.66
2023-03-18T08:34:26.070Z,100108.72
2023-03-18T08:37:30.419Z,100116.28
2023-03-18T08:40:35.164Z,100112.47
2023-03-18T08:43:41.080Z,100110.81
2023-03-18T08:46:45.243Z,100110.78
2023-03-18T08:49:51.458Z,100108.38
2023-03-18T08:52:56.994Z,100112.53
2023-03-18T08:56:02.993Z,100118.75
2023-03-18T08:59:08.668Z,100115.38
2023-03-18T09:02:17.216Z,100129.94
2023-03-18T09:05:21.608Z,100124.59
2023-03-18T09:08:26.078Z,100128.75
2023-03-18T09:11:30.225Z,100128.00
2023-03-18T09:14:36.685Z,100129.38
2023-03-18T09:17:56.456Z,100131.34
2023-03-18T09:21:01.202Z,100134.81
2023-03-18T09:24:07.449Z,100139.00
2023-03-18T09:27:12.073Z,100135.03
2023-03-18T09:30:17.872Z,100131.63
2023-03-18T09:33:22.637Z,100131.06
2023-03-18T09:36:26.875Z,100129.13
2023-03-18T09:39:31.074Z,100136.94
2023-03-18T09:42:48.947Z,100150.25
2023-03-18T09:46:03.471Z,100153.25
2023-03-18T09:49:24.963Z,100158.75
2023-03-18T09:52:33.500Z,100159.25
2023-03-18T09:55:46.955Z,100153.16
2023-03-18T09:58:55.886Z,100160.97
2023-03-18T10:02:02.171Z,100157.16
2023-03-18T10:05:12.813Z,100168.09
2023-03-18T10:08:26.091Z,100165.72
2023-03-18T10:11:33.873Z,100164.00
2023-03-18T10:14:44.106Z,100166.75
2023-03-18T10:17:56.085Z,100167.34
2023-03-18T10:21:12.152Z,100170.53
2023-03-18T10:24:30.977Z,100175.50
2023-03-18T10:27:49.890Z,100169.72
2023-03-18T10:31:03.362Z,100167.84
2023-03-18T10:34:13.658Z,100174.50
2023-03-18T10:37:25.405Z,100176.56
2023-03-18T10:40:33.972Z,100177.38
2023-03-18T10:43:38.475Z,100173.97
2023-03-18T10:46:45.565Z,100169.28
2023-03-18T10:50:05.918Z,100167.31
2023-03-18T10:53:21.537Z,100166.94
2023-03-18T10:56:26.074Z,100164.56
2023-03-18T10:59:31.647Z,100158.94
2023-03-18T11:02:40.874Z,100161.03
2023-03-18T11:05:46.617Z,100167.50
2023-03-18T11:08:51.335Z,100161.38
2023-03-18T11:11:59.847Z,100166.56
2023-03-18T11:15:12.048Z,100164.22
2023-03-18T11:18:19.815Z,100159.09
2023-03-18T11:21:26.454Z,100158.88
2023-03-18T11:24:39.139Z,100156.06
2023-03-18T11:27:46.170Z,100154.53
2023-03-18T11:30:53.565Z,100152.28
2023-03-18T11:33:59.827Z,100156.69
2023-03-18T11:37:08.534Z,100151.25
2023-03-18T11:40:26.194Z,100151.81
2023-03-18T11:43:30.205Z,100147.88
2023-03-18T11:46:37.955Z,100147.81
2023-03-18T11:49:43.412Z,100139.03
2023-03-18T11:52:59.413Z,100143.31
2023-03-18T11:56:12.635Z,100142.00
2023-03-18T11:59:48.846Z,100145.09
2023-03-18T12:03:23.015Z,100140.03
2023-03-18T12:06:29.846Z,100130.41
2023-03-18T12:09:43.510Z,100130.25
2023-03-18T12:12:57.097Z,100133.97
2023-03-18T12:16:10.266Z,100126.66
2023-03-18T12:19:45.435Z,100127.63
2023-03-18T12:23:05.117Z,100124.66
2023-03-18T12:26:14.633Z,100118.44
2023-03-18T12:29:48.788Z,100123.63
2023-03-18T12:32:59.444Z,100116.06
2023-03-18T12:36:12.785Z,100119.88
2023-03-18T12:39:48.296Z,100123.66
2023-03-18T12:43:21.421Z,100119.38
2023-03-18T12:46:29.268Z,100114.94
2023-03-18T12:49:37.813Z,100102.41
2023-03-18T12:52:45.899Z,100095.38
2023-03-18T12:55:55.106Z,100091.63
2023-03-18T12:59:09.922Z,100086.66
2023-03-18T13:02:31.964Z,100086.06
2023-03-18T13:05:43.434Z,100075.38
2023-03-18T13:08:58.853Z,100076.03
2023-03-18T13:12:12.072Z,100075.28
2023-03-18T13:15:29.589Z,100073.81
2023-03-18T13:18:40.480Z,100069.97
2023-03-18T13:21:47.582Z,100064.97
2023-03-18T13:25:03.975Z,100064.78
2023-03-18T13:28:38.211Z,100063.50
2023-03-18T13:31:53.979Z,100064.13
2023-03-18T13:35:26.754Z,100059.16
2023-03-18T13:38:46.697Z,100054.66
2023-03-18T13:42:15.048Z,100054.31
2023-03-18T13:45:26.827Z,100048.84
2023-03-18T13:48:35.346Z,100054.84
2023-03-18T13:51:54.563Z,100046.75
2023-03-18T13:55:04.096Z,100045.47
2023-03-18T13:58:23.116Z,100041.53
2023-03-18T14:01:36.730Z,100043.47
2023-03-18T14:04:50.694Z,100035.13
2023-03-18T14:07:57.414Z,100047.69
2023-03-18T14:11:37.447Z,100038.03
2023-03-18T14:14:55.465Z,100035.41
2023-03-18T14:18:00.096Z,100033.03
2023-03-18T14:21:09.103Z,100030.63
2023-03-18T14:24:15.470Z,100032.94
2023-03-18T14:27:22.162Z,100027.66
2023-03-18T14:30:45.242Z,100027.69
2023-03-18T14:33:59.652Z,100018.50
2023-03-18T14:37:28.090Z,100019.94
2023-03-18T14:40:37.985Z,100018.03
2023-03-18T14:43:49.313Z,100015.41
2023-03-18T14:46:58.498Z,100019.03
2023-03-18T14:50:07.497Z,100024.94
2023-03-18T14:53:22.951Z,100020.44
2023-03-18T14:56:32.160Z,100012.81
2023-03-18T14:59:36.385Z,100010.53
2023-03-18T15:02:41.317Z,100004.53
2023-03-18T15:05:46.793Z,100017.56
2023-03-18T15:08:54.514Z,100016.84
2023-03-18T15:11:58.791Z,100020.47
2023-03-18T15:15:03.377Z,100020.34
2023-03-18T15:18:19.935Z,100017.84
2023-03-18T15:21:27.689Z,100018.13
2023-03-18T15:24:33.709Z,100018.00
2023-03-18T15:27:38.862Z,100017.31
2023-03-18T15:30:52.940Z,100027.13
2023-03-18T15:34:08.888Z,100023.59
2023-03-18T15:37:33.954Z,100021.41
2023-03-18T15:40:49.212Z,100025.00
2023-03-18T15:43:54.205Z,100027.91
2023-03-18T15:47:08.625Z,100030.38
2023-03-18T15:50:25.937Z,100033.31
2023-03-18T15:53:35.154Z,100032.00
2023-03-18T15:56:46.687Z,100033.59
2023-03-18T15:59:50.847Z,100039.81
2023-03-18T16:02:55.309Z,100040.53
2023-03-18T16:06:00.323Z,100039.13
2023-03-18T16:09:16.005Z,100046.28
2023-03-18T16:12:24.433Z,100045.22
2023-03-18T16:15:30.071Z,100042.75
2023-03-18T16:18:35.390Z,100048.13
2023-03-18T16:21:39.480Z,100045.38
2023-03-18T16:24:44.478Z,100047.84
2023-03-18T16:27:52.342Z,100052.78
2023-03-18T16:30:58.066Z,100059.00
2023-03-18T16:34:02.145Z,100069.75
2023-03-18T16:37:06.510Z,100069.88
2023-03-18T16:40:17.698Z,100071.66
2023-03-18T16:43:24.787Z,100065.31
2023-03-18T16:46:29.080Z,100072.44
2023-03-18T16:49:37.073Z,100074.09
2023-03-18T16:52:42.757Z,100071.88
2023-03-18T16:55:48.483Z,100079.72
2023-03-18T16:58:54.173Z,100081.91
2023-03-18T17:01:58.304Z,100088.50
2023-03-18T17:05:03.348Z,100087.13
2023-03-18T17:08:08.852Z,100094.28
2023-03-18T17:11:19.923Z,100097.78
2023-03-18T17:14:34.327Z,100103.72
2023-03-18T17:17:38.534Z,100108.66
2023-03-18T17:20:44.386Z,100110.34
2023-03-18T17:23:49.134Z,100118.69
2023-03-18T17:26:53.830Z,100123.19
2023-03-18T17:29:59.607Z,100127.31
2023-03-18T17:33:05.714Z,100124.69
2023-03-18T17:36:10.406Z,100128.16
2023-03-18T17:39:14.732Z,100132.81
2023-03-18T17:42:29.825Z,100140.03
2023-03-18T17:45:36.916Z,100146.81
2023-03-18T17:48:41.705Z,100146.31
2023-03-18T17:51:48.930Z,100147.63
2023-03-18T17:54:53.152Z,100156.06
2023-03-18T17:57:57.273Z,100154.03
2023-03-18T18:01:07.217Z,100158.31
2023-03-18T18:04:16.994Z,100158.19
2023-03-18T18:07:24.077Z,100162.34
2023-03-18T18:10:28.160Z,100162.69
2023-03-18T18:13:32.833Z,100158.66
2023-03-18T18:16:38.487Z,100156.25
2023-03-18T18:19:43.025Z,100158.50
2023-03-18T18:22:49.440Z,100160.19
2023-03-18T18:25:54.068Z,100159.22
2023-03-18T18:28:58.146Z,100157.94
2023-03-18T18:32:04.823Z,100164.41
2023-03-18T18:35:09.996Z,100166.53
2023-03-18T18:38:14.322Z,100173.16
2023-03-18T18:41:18.442Z,100172.13
2023-03-18T18:44:22.787Z,100179.06
2023-03-18T18:47:28.322Z,100179.59
2023-03-18T18:50:35.683Z,100182.13
2023-03-18T18:53:41.728Z,100185.97
2023-03-18T18:56:48.045Z,100186.69
2023-03-18T18:59:52.124Z,100184.94
2023-03-18T19:02:58.382Z,100181.09
2023-03-18T19:06:05.221Z,100185.44
2023-03-18T19:09:17.653Z,100189.16
2023-03-18T19:12:21.842Z,100186.88
2023-03-18T19:15:26.287Z,100197.84
2023-03-18T19:18:36.546Z,100197.47
2023-03-18T19:21:40.593Z,100196.88
2023-03-18T19:24:46.024Z,100205.84
2023-03-18T19:27:50.198Z,100209.78
2023-03-18T19:30:54.984Z,100209.53
2023-03-18T19:34:01.275Z,100212.75
2023-03-18T19:37:06.296Z,100204.81
2023-03-18T19:40:22.537Z,100213.47
2023-03-18T19:43:26.761Z,100219.63
2023-03-18T19:46:39.102Z,100221.66
2023-03-18T19:49:44.774Z,100222.00
2023-03-18T19:52:49.208Z,100218.44
2023-03-18T19:55:53.759Z,100222.22
2023-03-18T19:58:59.657Z,100229.47
2023-03-18T20:02:04.080Z,100231.97
2023-03-18T20:05:18.762Z,100231.81
2023-03-18T20:08:22.873Z,100239.88
2023-03-18T20:11:27.505Z,100234.81
2023-03-18T20:14:38.230Z,100235.41
2023-03-18T20:17:43.989Z,100240.72
2023-03-18T20:20:51.658Z,100237.91
2023-03-18T20:23:58.304Z,100235.88
2023-03-18T20:27:02.436Z,100235.28
2023-03-18T20:30:21.294Z,100245.81
2023-03-18T20:33:25.527Z,100239.19
2023-03-18T20:36:31.125Z,100238.94
2023-03-18T20:39:35.296Z,100243.19
2023-03-18T20:42:39.633Z,100231.13
2023-03-18T20:45:43.806Z,100231.88
2023-03-18T20:48:49.668Z,100227.09
2023-03-18T20:51:55.319Z,100229.09
2023-03-18T20:54:59.432Z,100234.72
2023-03-18T20:58:04.200Z,100239.00
2023-03-18T21:01:08.908Z,100235.28
2023-03-18T21:04:14.338Z,100234.28
2023-03-18T21:07:19.988Z,100238.06
2023-03-18T21:10:25.826Z,100237.38
2023-03-18T21:13:32.470Z,100236.44
2023-03-18T21:16:37.831Z,100237.50
2023-03-18T21:19:42.169Z,100237.69
2023-03-18T21:22:48.858Z,100235.78
2023-03-18T21:25:53.677Z,100230.53
2023-03-18T21:28:58.993Z,100234.44
2023-03-18T21:32:03.167Z,100234.00
2023-03-18T21:35:08.555Z,100219.53
2023-03-18T21:38:14.012Z,100212.53
2023-03-18T21:41:21.754Z,100210.31
2023-03-18T21:44:25.912Z,100210.03
2023-03-18T21:47:30.126Z,100209.78
2023-03-18T21:50:41.891Z,100209.94
2023-03-18T21:53:48.244Z,100204.06
2023-03-18T21:56:52.443Z,100202.25
2023-03-18T21:59:56.578Z,100206.91
2023-03-18T22:03:00.582Z,100204.53
2023-03-18T22:06:04.691Z,100205.72
2023-03-18T22:09:10.368Z,100201.63
2023-03-18T22:12:17.767Z,100195.22
2023-03-18T22:15:40.305Z,100199.75
2023-03-18T22:18:46.229Z,100200.31
2023-03-18T22:21:50.406Z,100195.66
2023-03-18T22:24:56.381Z,100190.84
2023-03-18T22:28:01.549Z,100191.16
2023-03-18T22:31:06.522Z,100189.78
2023-03-18T22:34:23.725Z,100198.94
2023-03-18T22:37:28.498Z,100201.22
2023-03-18T22:40:34.386Z,100189.09
2023-03-18T22:43:39.723Z,100192.69
2023-03-18T22:46:44.091Z,100188.44
2023-03-18T22:49:48.741Z,100192.06
2023-03-18T22:52:59.763Z,100186.06
2023-03-18T22:56:09.750Z,100185.47
2023-03-18T22:59:14.748Z,100186.41
2023-03-18T23:02:21.462Z,100182.28
2023-03-18T23:05:26.155Z,100181.56
2023-03-18T23:08:30.546Z,100183.31
2023-03-18T23:11:36.213Z,100185.53
2023-03-18T23:14:41.153Z,100188.13
2023-03-18T23:17:46.288Z,100182.53
2023-03-18T23:20:52.248Z,100188.16
2023-03-18T23:23:57.260Z,100184.31
2023-03-18T23:27:02.822Z,100182.13
2023-03-18T23:30:08.672Z,100182.47
2023-03-18T23:33:12.695Z,100179.53
2023-03-18T23:36:17.002Z,100179.56
2023-03-18T23:39:21.162Z,100176.94
2023-03-18T23:42:26.866Z,100180.38
2023-03-18T23:45:32.192Z,100176.84
2023-03-18T23:48:36.397Z,100176.41
2023-03-18T23:51:40.372Z,100182.03
2023-03-18T23:54:44.475Z,100177.91
2023-03-18T23:57:49.862Z,100173.44
